Time;durP1;ratioP1;P1;durP2;ratioP2;P2;SDS_P1;SDS_P2;PMS_P1;PMS_P2;Temp;Humidity;BMP_temperature;BMP_pressure;BME280_temperature;BME280_humidity;BME280_pressure;Samples;Min_cycle;Max_cycle;Signal;HPM_P1;HPM_P2
2021/03/03 00:01:14;;;;;;;40.40;16.53;;;1.70;99.90;;;;;;4156279;28;20282;-65
2021/03/03 00:03:15;;;;;;;38.03;17.23;;;1.70;99.90;;;;;;4156453;28;20325;-64
2021/03/03 00:05:17;;;;;;;38.17;16.43;;;1.70;99.90;;;;;;4155945;28;20735;-65
2021/03/03 00:07:18;;;;;;;38.13;17.27;;;1.60;99.90;;;;;;4156542;28;20344;-65
2021/03/03 00:09:19;;;;;;;39.60;17.03;;;1.60;99.90;;;;;;4156154;28;20997;-65
2021/03/03 00:11:20;;;;;;;39.37;17.60;;;1.50;99.90;;;;;;4154694;28;20701;-64
2021/03/03 00:13:21;;;;;;;35.07;16.67;;;1.50;99.90;;;;;;4155330;28;20309;-65
2021/03/03 00:15:23;;;;;;;36.27;17.53;;;1.50;99.90;;;;;;4156375;28;20409;-65
2021/03/03 00:17:25;;;;;;;34.17;16.83;;;1.50;99.90;;;;;;4155569;28;20816;-65
2021/03/03 00:19:26;;;;;;;39.73;16.57;;;1.50;99.90;;;;;;4156216;28;20317;-65
2021/03/03 00:21:28;;;;;;;41.07;17.27;;;1.50;99.90;;;;;;4156389;28;20274;-64
2021/03/03 00:23:29;;;;;;;38.53;17.33;;;1.40;99.90;;;;;;4156200;28;20328;-64
2021/03/03 00:25:30;;;;;;;39.03;16.50;;;1.40;99.90;;;;;;4155746;28;20612;-65
2021/03/03 00:27:31;;;;;;;36.37;16.50;;;1.40;99.90;;;;;;4156619;28;20298;-67
2021/03/03 00:29:32;;;;;;;31.80;15.50;;;1.40;99.90;;;;;;4154829;28;20286;-64
2021/03/03 00:31:34;;;;;;;38.20;17.30;;;1.40;99.90;;;;;;4155732;28;20321;-65
2021/03/03 00:33:35;;;;;;;32.03;15.27;;;1.30;99.90;;;;;;4156137;28;20329;-65
2021/03/03 00:35:36;;;;;;;33.00;15.23;;;1.30;99.90;;;;;;4156071;28;20314;-66
2021/03/03 00:37:37;;;;;;;30.63;14.70;;;1.30;99.90;;;;;;4155867;28;20316;-65
2021/03/03 00:39:38;;;;;;;30.50;14.53;;;1.30;99.90;;;;;;4155695;28;20271;-66
2021/03/03 00:41:39;;;;;;;27.47;13.97;;;1.30;99.90;;;;;;4155952;28;20274;-66
2021/03/03 00:43:41;;;;;;;28.07;12.77;;;1.20;99.90;;;;;;4155624;28;20345;-68
2021/03/03 00:45:42;;;;;;;32.33;15.00;;;1.20;99.90;;;;;;4155458;28;20672;-65
2021/03/03 00:47:43;;;;;;;28.47;13.13;;;1.20;99.90;;;;;;4155470;28;20344;-65
2021/03/03 00:49:44;;;;;;;29.93;12.90;;;1.20;99.90;;;;;;4156019;28;20312;-66
2021/03/03 00:51:45;;;;;;;31.47;13.07;;;1.20;99.90;;;;;;4155588;28;20263;-65
2021/03/03 00:53:47;;;;;;;27.67;11.97;;;1.10;99.90;;;;;;4155991;28;20351;-66
2021/03/03 00:55:53;;;;;;;27.20;12.43;;;1.00;99.90;;;;;;4156142;28;20305;-63
2021/03/03 00:57:54;;;;;;;27.63;12.57;;;1.00;99.90;;;;;;4155739;28;20324;-64
2021/03/03 00:59:56;;;;;;;23.03;11.37;;;0.90;99.90;;;;;;4155349;28;20282;-65
2021/03/03 01:01:57;;;;;;;21.63;11.00;;;0.90;99.90;;;;;;4155622;28;20792;-66
2021/03/03 01:03:58;;;;;;;24.80;11.33;;;0.80;99.90;;;;;;4155663;28;20320;-65
2021/03/03 01:05:59;;;;;;;31.23;13.73;;;0.80;99.90;;;;;;4155746;28;20259;-65
2021/03/03 01:08:00;;;;;;;23.67;11.87;;;0.80;99.90;;;;;;4156641;28;20298;-65
2021/03/03 01:10:02;;;;;;;40.43;14.53;;;0.70;99.90;;;;;;4155464;28;20275;-64
2021/03/03 01:12:03;;;;;;;36.57;15.63;;;0.70;99.90;;;;;;4155684;28;20329;-66
2021/03/03 01:14:05;;;;;;;38.63;15.87;;;0.60;99.90;;;;;;4155401;28;20766;-67
2021/03/03 01:16:06;;;;;;;36.40;16.97;;;0.50;99.90;;;;;;4155601;28;20345;-66
2021/03/03 01:18:07;;;;;;;35.03;16.70;;;0.50;99.90;;;;;;4153843;28;20270;-64
2021/03/03 01:20:10;;;;;;;37.53;17.93;;;0.50;99.90;;;;;;4155272;28;20670;-65
2021/03/03 01:22:11;;;;;;;37.87;17.57;;;0.50;99.90;;;;;;4155327;28;20275;-65
2021/03/03 01:24:13;;;;;;;34.30;17.50;;;0.50;99.90;;;;;;4156629;28;20313;-63
2021/03/03 01:26:14;;;;;;;40.57;17.13;;;0.40;99.90;;;;;;4158581;28;20317;-64
2021/03/03 01:28:16;;;;;;;42.23;17.60;;;0.40;99.90;;;;;;4157850;28;20432;-64
2021/03/03 01:30:17;;;;;;;38.00;17.90;;;0.40;99.90;;;;;;4158490;28;20679;-63
2021/03/03 01:32:19;;;;;;;44.13;17.63;;;0.30;99.90;;;;;;4158803;28;20612;-67
2021/03/03 01:34:20;;;;;;;38.07;17.20;;;0.30;99.90;;;;;;4158680;28;20262;-67
2021/03/03 01:36:21;;;;;;;41.20;17.20;;;0.30;99.90;;;;;;4158612;28;20275;-64
2021/03/03 01:38:23;;;;;;;40.37;19.13;;;0.30;99.90;;;;;;4158872;28;21149;-64
2021/03/03 01:40:25;;;;;;;40.87;18.07;;;0.30;99.90;;;;;;4158135;28;20293;-64
2021/03/03 01:42:26;;;;;;;41.23;17.90;;;0.20;99.90;;;;;;4158071;28;20679;-62
2021/03/03 01:44:27;;;;;;;38.83;17.93;;;0.20;99.90;;;;;;4157627;28;20282;-66
2021/03/03 01:46:28;;;;;;;34.77;16.97;;;0.20;99.90;;;;;;4158578;28;20263;-64
2021/03/03 01:48:29;;;;;;;38.47;16.20;;;0.20;99.90;;;;;;4157990;28;20298;-65
2021/03/03 01:50:31;;;;;;;31.77;14.57;;;0.20;99.90;;;;;;4157811;28;20309;-64
2021/03/03 01:52:33;;;;;;;33.90;15.43;;;0.20;99.90;;;;;;4158576;28;20271;-64
2021/03/03 01:54:34;;;;;;;31.50;14.90;;;0.20;99.90;;;;;;4158336;28;20818;-65
2021/03/03 01:56:35;;;;;;;27.63;13.53;;;0.20;99.90;;;;;;4158754;28;20270;-64
2021/03/03 01:58:37;;;;;;;30.13;13.30;;;0.20;99.90;;;;;;4158684;28;20305;-65
2021/03/03 02:00:38;;;;;;;33.03;14.80;;;0.10;99.90;;;;;;4158343;28;20275;-64
2021/03/03 02:02:39;;;;;;;35.17;15.07;;;0.00;99.90;;;;;;4158302;28;20271;-65
2021/03/03 02:04:40;;;;;;;32.90;15.50;;;-0.10;99.90;;;;;;4157900;28;20275;-65
2021/03/03 02:06:57;;;;;;;36.07;15.60;;;-0.10;99.90;;;;;;4158214;28;20723;-65
2021/03/03 02:09:40;;;;;;;42.63;16.47;;;-0.20;99.90;;;;;;4157892;28;20254;-65
2021/03/03 02:11:58;;;;;;;34.37;16.27;;;-0.20;99.90;;;;;;4141697;28;20284;-63
2021/03/03 02:14:03;;;;;;;36.60;16.77;;;-0.20;99.90;;;;;;4153116;28;20286;-67
2021/03/03 02:16:07;;;;;;;40.07;16.90;;;-0.30;99.90;;;;;;4157612;28;20312;-65
2021/03/03 02:18:11;;;;;;;41.37;16.20;;;-0.30;99.90;;;;;;4158356;28;20270;-66
2021/03/03 02:20:14;;;;;;;39.20;17.57;;;-0.30;99.90;;;;;;4157836;28;20275;-64
2021/03/03 02:22:57;;;;;;;40.30;16.50;;;-0.30;99.90;;;;;;4157273;28;20351;-65
2021/03/03 02:25:05;;;;;;;40.53;15.40;;;-0.30;99.90;;;;;;4157824;28;21101;-67
2021/03/03 02:27:06;;;;;;;37.47;16.77;;;-0.20;99.90;;;;;;4157779;28;20295;-66
2021/03/03 02:29:10;;;;;;;34.90;17.33;;;-0.20;99.90;;;;;;4157342;28;20312;-63
2021/03/03 02:31:16;;;;;;;37.97;16.13;;;-0.20;99.90;;;;;;4157867;28;20258;-65
2021/03/03 02:33:22;;;;;;;35.90;15.80;;;-0.20;99.90;;;;;;4157824;28;20270;-65
2021/03/03 02:35:24;;;;;;;35.43;15.40;;;-0.20;99.90;;;;;;4156984;28;20324;-66
2021/03/03 02:37:25;;;;;;;37.70;16.73;;;-0.20;99.90;;;;;;4157179;28;20266;-64
2021/03/03 02:39:29;;;;;;;34.03;16.10;;;-0.20;99.90;;;;;;4157960;28;20670;-65
2021/03/03 02:41:32;;;;;;;35.87;16.27;;;-0.20;99.90;;;;;;4155830;28;20267;-64
2021/03/03 02:43:34;;;;;;;33.20;15.37;;;-0.20;99.90;;;;;;4156990;28;20291;-63
2021/03/03 02:45:36;;;;;;;31.47;14.63;;;-0.20;99.90;;;;;;4157689;28;20397;-64
2021/03/03 02:47:38;;;;;;;33.17;15.17;;;-0.20;99.90;;;;;;4157282;28;20360;-65
2021/03/03 02:49:41;;;;;;;31.50;14.27;;;-0.20;99.90;;;;;;4156768;28;20275;-65
2021/03/03 02:51:42;;;;;;;39.20;15.13;;;-0.20;99.90;;;;;;4141223;28;20275;-67
2021/03/03 02:53:43;;;;;;;31.17;15.60;;;-0.20;99.90;;;;;;4140857;28;20333;-63
2021/03/03 02:55:44;;;;;;;39.17;14.97;;;-0.20;99.90;;;;;;4141240;28;20280;-65
2021/03/03 02:57:46;;;;;;;32.83;15.63;;;-0.20;99.90;;;;;;4141687;28;20310;-64
2021/03/03 02:59:51;;;;;;;32.27;14.90;;;-0.20;99.90;;;;;;4155645;28;20770;-65
2021/03/03 03:01:55;;;;;;;37.27;16.33;;;-0.20;99.90;;;;;;4157016;28;20891;-64
2021/03/03 03:04:00;;;;;;;34.83;16.13;;;-0.30;99.90;;;;;;4157356;28;20271;-64
2021/03/03 03:06:23;;;;;;;31.50;15.40;;;-0.20;99.90;;;;;;4156992;28;20329;-65
2021/03/03 03:08:26;;;;;;;39.07;15.67;;;-0.30;99.90;;;;;;4156941;28;20290;-64
2021/03/03 03:10:28;;;;;;;36.50;16.33;;;-0.30;99.90;;;;;;4156833;28;20684;-65
2021/03/03 03:12:30;;;;;;;36.67;15.47;;;-0.30;99.90;;;;;;4156762;28;20275;-65
2021/03/03 03:14:33;;;;;;;42.63;15.87;;;-0.40;99.90;;;;;;4156862;28;20271;-63
2021/03/03 03:16:36;;;;;;;35.00;15.17;;;-0.40;99.90;;;;;;4155631;28;20336;-64
2021/03/03 03:18:45;;;;;;;31.73;15.33;;;-0.40;99.90;;;;;;4156864;28;20828;-64
2021/03/03 03:20:48;;;;;;;37.33;14.97;;;-0.40;99.90;;;;;;4156710;28;20271;-64
2021/03/03 03:22:49;;;;;;;37.50;16.20;;;-0.40;99.90;;;;;;4156734;28;21059;-65
2021/03/03 03:24:53;;;;;;;28.27;15.10;;;-0.50;99.90;;;;;;4156867;28;20267;-65
2021/03/03 03:26:57;;;;;;;35.03;15.80;;;-0.50;99.90;;;;;;4155203;28;20344;-64
2021/03/03 03:28:59;;;;;;;34.70;13.93;;;-0.50;99.90;;;;;;4156642;28;20298;-65
2021/03/03 03:31:00;;;;;;;27.80;13.57;;;-0.50;99.90;;;;;;4156188;28;20290;-64
2021/03/03 03:33:02;;;;;;;25.93;12.87;;;-0.60;99.90;;;;;;4156570;28;20271;-65
2021/03/03 03:35:04;;;;;;;28.23;13.43;;;-0.60;99.90;;;;;;4156535;28;20251;-63
2021/03/03 03:37:07;;;;;;;34.00;15.03;;;-0.60;99.90;;;;;;4156529;28;20677;-64
2021/03/03 03:39:10;;;;;;;36.33;14.47;;;-0.60;99.90;;;;;;4156283;28;20769;-64
2021/03/03 03:41:13;;;;;;;32.57;13.10;;;-0.70;99.90;;;;;;4156696;28;20695;-64
2021/03/03 03:43:16;;;;;;;39.70;14.53;;;-0.70;99.90;;;;;;4156159;28;20271;-65
2021/03/03 03:45:17;;;;;;;31.23;13.97;;;-0.70;99.90;;;;;;4156775;28;20270;-64
2021/03/03 03:47:19;;;;;;;32.43;13.80;;;-0.70;99.90;;;;;;4155451;28;20283;-63
2021/03/03 03:49:23;;;;;;;29.17;13.87;;;-0.70;99.90;;;;;;4156265;28;20262;-64
2021/03/03 03:51:25;;;;;;;35.00;16.03;;;-0.70;99.90;;;;;;4156576;28;20729;-64
2021/03/03 03:53:30;;;;;;;39.77;15.40;;;-0.70;99.90;;;;;;4156497;28;20427;-64
2021/03/03 03:55:35;;;;;;;37.73;15.57;;;-0.70;99.90;;;;;;4156605;28;20813;-64
2021/03/03 03:57:52;;;;;;;35.47;15.37;;;-0.70;99.90;;;;;;4156828;28;20275;-64
2021/03/03 03:59:53;;;;;;;36.40;15.83;;;-0.70;99.90;;;;;;4156488;28;20666;-64
2021/03/03 04:01:55;;;;;;;44.73;18.17;;;-0.70;99.90;;;;;;4156586;28;20356;-66
2021/03/03 04:03:57;;;;;;;37.87;17.70;;;-0.70;99.90;;;;;;4156195;28;20380;-63
2021/03/03 04:06:02;;;;;;;35.67;16.90;;;-0.70;99.90;;;;;;4156712;28;20309;-63
2021/03/03 04:08:03;;;;;;;34.50;16.43;;;-0.70;99.90;;;;;;4156475;28;20883;-64
2021/03/03 04:10:05;;;;;;;35.67;16.50;;;-0.70;99.90;;;;;;4156195;28;20321;-65
2021/03/03 04:12:07;;;;;;;39.50;15.40;;;-0.80;99.90;;;;;;4156557;28;20317;-64
2021/03/03 04:14:10;;;;;;;35.20;14.50;;;-0.80;99.90;;;;;;4156219;28;20834;-67
2021/03/03 04:16:11;;;;;;;32.87;15.17;;;-0.90;99.90;;;;;;4155765;28;20324;-65
2021/03/03 04:18:13;;;;;;;32.50;14.37;;;-0.90;99.90;;;;;;4156006;28;20279;-66
2021/03/03 04:20:15;;;;;;;28.47;13.43;;;-0.90;99.90;;;;;;4156974;28;20275;-65
2021/03/03 04:22:16;;;;;;;29.70;14.23;;;-0.90;99.90;;;;;;4155976;28;20678;-65
2021/03/03 04:24:18;;;;;;;39.17;14.17;;;-1.00;99.90;;;;;;4156137;28;20321;-67
2021/03/03 04:26:19;;;;;;;36.80;13.80;;;-1.00;99.90;;;;;;4156054;28;20275;-65
2021/03/03 04:28:20;;;;;;;31.33;13.20;;;-1.00;99.90;;;;;;4156161;28;20356;-65
2021/03/03 04:30:22;;;;;;;43.37;14.43;;;-1.00;99.90;;;;;;4154658;28;20263;-66
2021/03/03 04:32:23;;;;;;;27.30;13.30;;;-1.00;99.90;;;;;;4155809;28;20674;-64
2021/03/03 04:34:25;;;;;;;31.23;13.77;;;-1.00;99.90;;;;;;4156074;28;20271;-65
2021/03/03 04:36:27;;;;;;;33.67;14.23;;;-1.00;99.90;;;;;;4155971;28;20356;-64
2021/03/03 04:38:28;;;;;;;36.53;13.67;;;-1.00;99.90;;;;;;4156398;28;20275;-64
2021/03/03 04:40:29;;;;;;;31.67;15.37;;;-1.10;99.90;;;;;;4155584;28;20282;-65
2021/03/03 04:42:30;;;;;;;35.83;15.10;;;-1.00;99.90;;;;;;4155720;28;20783;-66
2021/03/03 04:44:33;;;;;;;43.87;16.00;;;-1.10;99.90;;;;;;4156052;28;20348;-65
2021/03/03 04:46:34;;;;;;;32.43;14.07;;;-1.10;99.90;;;;;;4156013;28;20813;-65
2021/03/03 04:48:35;;;;;;;38.87;16.10;;;-1.10;99.90;;;;;;4155575;28;20341;-66
2021/03/03 04:50:37;;;;;;;38.80;14.13;;;-1.10;99.90;;;;;;4155822;28;20274;-66
2021/03/03 04:52:38;;;;;;;34.93;15.03;;;-1.20;99.90;;;;;;4155670;28;21000;-65
2021/03/03 04:54:40;;;;;;;28.33;13.93;;;-1.20;99.90;;;;;;4155452;28;20309;-63
2021/03/03 04:56:41;;;;;;;36.50;14.13;;;-1.20;99.90;;;;;;4155748;28;20349;-64
2021/03/03 04:58:42;;;;;;;43.53;16.37;;;-1.20;99.90;;;;;;4156938;28;20291;-64
2021/03/03 05:00:43;;;;;;;38.23;15.27;;;-1.20;99.90;;;;;;4159724;28;20824;-64
2021/03/03 05:02:44;;;;;;;46.33;15.20;;;-1.20;99.90;;;;;;4161600;28;20332;-67
2021/03/03 05:04:45;;;;;;;36.00;15.47;;;-1.30;99.90;;;;;;4160806;28;20275;-65
2021/03/03 05:06:46;;;;;;;34.67;14.07;;;-1.20;99.90;;;;;;4160266;28;20282;-65
2021/03/03 05:08:48;;;;;;;39.70;16.73;;;-1.20;99.90;;;;;;4160933;28;20294;-66
2021/03/03 05:10:49;;;;;;;35.70;16.27;;;-1.10;99.90;;;;;;4160902;28;20819;-65
2021/03/03 05:12:50;;;;;;;41.40;18.37;;;-1.00;99.90;;;;;;4160702;28;20677;-65
2021/03/03 05:14:51;;;;;;;46.90;18.87;;;-0.90;99.90;;;;;;4160584;28;20324;-64
2021/03/03 05:16:52;;;;;;;48.87;19.57;;;-0.70;99.90;;;;;;4160871;28;20282;-66
2021/03/03 05:18:53;;;;;;;48.93;20.90;;;-0.50;99.90;;;;;;4160315;28;20278;-64
2021/03/03 05:20:55;;;;;;;44.63;19.37;;;-0.30;99.90;;;;;;4160596;28;20298;-67
2021/03/03 05:22:56;;;;;;;49.53;20.77;;;-0.10;99.90;;;;;;4159884;28;20802;-67
2021/03/03 05:24:57;;;;;;;44.37;19.90;;;0.20;99.90;;;;;;4160482;28;20270;-65
2021/03/03 05:26:58;;;;;;;38.87;20.20;;;0.40;99.90;;;;;;4160572;28;20747;-65
2021/03/03 05:28:59;;;;;;;43.53;19.37;;;0.70;99.90;;;;;;4160926;28;20298;-67
2021/03/03 05:31:01;;;;;;;47.73;20.23;;;1.00;99.90;;;;;;4160683;28;20263;-64
2021/03/03 05:33:02;;;;;;;47.83;19.50;;;1.30;99.90;;;;;;4159975;28;20262;-67
2021/03/03 05:35:04;;;;;;;37.87;16.60;;;1.60;99.90;;;;;;4160656;28;20324;-63
2021/03/03 05:37:05;;;;;;;33.40;16.17;;;1.90;99.90;;;;;;4159812;28;20263;-63
2021/03/03 05:39:06;;;;;;;36.77;16.13;;;2.20;99.90;;;;;;4159422;28;20271;-66
2021/03/03 05:41:08;;;;;;;30.07;14.03;;;2.60;99.90;;;;;;4160447;28;20262;-66
2021/03/03 05:43:12;;;;;;;29.80;14.67;;;2.90;99.90;;;;;;4159535;28;20344;-66
2021/03/03 05:45:16;;;;;;;33.97;15.30;;;3.20;99.90;;;;;;4160011;28;20336;-67
2021/03/03 05:47:20;;;;;;;33.17;14.73;;;3.30;99.90;;;;;;4160095;28;20337;-64
2021/03/03 05:49:25;;;;;;;39.17;15.67;;;3.60;99.90;;;;;;4158737;28;20341;-65
2021/03/03 05:51:27;;;;;;;38.93;16.23;;;3.90;99.90;;;;;;4160002;28;20611;-67
2021/03/03 05:53:30;;;;;;;36.00;15.43;;;4.20;99.90;;;;;;4159636;28;20282;-64
2021/03/03 05:55:31;;;;;;;36.70;15.53;;;4.60;99.90;;;;;;4160522;28;20670;-67
2021/03/03 05:57:34;;;;;;;33.73;15.00;;;5.00;99.90;;;;;;4159960;28;20670;-66
2021/03/03 05:59:36;;;;;;;40.17;15.57;;;5.30;99.90;;;;;;4160341;28;20336;-64
2021/03/03 06:01:38;;;;;;;42.90;14.97;;;5.60;99.90;;;;;;4159566;28;20332;-65
2021/03/03 06:03:40;;;;;;;38.80;14.70;;;5.90;99.90;;;;;;4160250;28;20773;-67
2021/03/03 06:05:41;;;;;;;28.43;13.50;;;6.30;99.90;;;;;;4159940;28;20091;-65
2021/03/03 06:07:46;;;;;;;33.27;16.07;;;6.70;99.90;;;;;;4159572;28;20026;-66
2021/03/03 06:09:48;;;;;;;32.73;17.03;;;7.00;99.90;;;;;;4159408;28;20033;-67
2021/03/03 06:11:49;;;;;;;35.33;19.70;;;7.20;99.90;;;;;;4156600;28;20034;-65
2021/03/03 06:13:50;;;;;;;29.13;15.37;;;7.50;99.50;;;;;;4157312;28;20676;-66
2021/03/03 06:15:52;;;;;;;29.90;13.07;;;7.80;98.60;;;;;;4157546;28;20091;-65
2021/03/03 06:17:54;;;;;;;33.20;14.00;;;8.10;97.50;;;;;;4157656;28;20128;-66
2021/03/03 06:19:55;;;;;;;29.57;13.43;;;8.30;96.50;;;;;;4157232;28;20375;-66
2021/03/03 06:22:16;;;;;;;28.30;13.40;;;8.50;95.70;;;;;;4157186;28;20456;-66
2021/03/03 06:24:18;;;;;;;42.07;16.00;;;8.70;94.30;;;;;;4157419;28;20471;-66
2021/03/03 06:26:19;;;;;;;41.50;17.07;;;8.80;93.50;;;;;;4157815;28;20115;-66
2021/03/03 06:28:43;;;;;;;33.77;16.83;;;8.60;92.40;;;;;;4157713;28;20387;-67
2021/03/03 06:30:44;;;;;;;40.90;17.10;;;8.90;89.90;;;;;;4157700;28;20095;-67
2021/03/03 06:33:00;;;;;;;38.00;17.33;;;9.30;91.30;;;;;;4156274;28;20029;-66
2021/03/03 06:35:01;;;;;;;44.40;17.53;;;9.50;87.80;;;;;;4156865;28;20038;-66
2021/03/03 06:37:04;;;;;;;43.77;18.43;;;9.80;88.50;;;;;;4156535;28;20480;-64
2021/03/03 06:39:25;;;;;;;48.37;19.00;;;9.90;84.60;;;;;;4154185;28;20143;-63
2021/03/03 06:41:38;;;;;;;40.70;18.52;;;10.00;82.40;;;;;;4155417;28;20095;-62
2021/03/03 06:43:39;;;;;;;43.63;17.97;;;10.10;80.10;;;;;;4158397;28;21549;-65
2021/03/03 06:45:40;;;;;;;40.50;18.57;;;10.20;80.60;;;;;;4148814;28;20072;-63
2021/03/03 06:47:48;;;;;;;48.20;18.17;;;10.50;79.70;;;;;;4155885;28;20056;-65
2021/03/03 06:49:51;;;;;;;37.40;18.13;;;11.10;77.40;;;;;;4167805;28;20079;-65
2021/03/03 06:51:52;;;;;;;38.97;16.50;;;11.40;75.10;;;;;;4164170;28;20025;-65
2021/03/03 06:53:55;;;;;;;32.77;13.83;;;11.60;73.50;;;;;;4156234;28;20045;-63
2021/03/03 06:55:56;;;;;;;32.23;15.53;;;11.50;72.40;;;;;;4156856;28;20107;-63
2021/03/03 06:58:24;;;;;;;37.53;16.87;;;11.40;72.30;;;;;;4157266;28;20451;-64
2021/03/03 07:00:42;;;;;;;38.47;15.93;;;11.40;68.60;;;;;;4156922;28;20555;-63
2021/03/03 07:02:44;;;;;;;37.20;15.47;;;11.20;69.90;;;;;;4156744;28;20579;-66
2021/03/03 07:04:45;;;;;;;45.50;16.37;;;11.10;71.20;;;;;;4157451;28;20072;-63
2021/03/03 07:06:47;;;;;;;55.13;19.57;;;11.10;71.50;;;;;;4157007;28;20021;-66
2021/03/03 07:09:06;;;;;;;47.70;18.87;;;11.00;70.10;;;;;;4156104;28;20450;-66
2021/03/03 07:11:20;;;;;;;50.93;19.37;;;10.30;68.60;;;;;;4156360;28;20115;-66
2021/03/03 07:13:36;;;;;;;47.20;20.00;;;9.80;70.90;;;;;;4155888;28;20103;-62
2021/03/03 07:15:37;;;;;;;54.13;18.53;;;9.70;71.60;;;;;;4156416;28;20037;-63
2021/03/03 07:17:40;;;;;;;44.50;17.40;;;9.70;72.30;;;;;;4156863;28;20029;-62
2021/03/03 07:19:46;;;;;;;41.87;17.20;;;9.70;71.80;;;;;;4156660;28;20108;-66
2021/03/03 07:21:48;;;;;;;53.50;18.97;;;9.70;71.80;;;;;;4156563;28;20041;-66
2021/03/03 07:23:50;;;;;;;47.77;17.03;;;9.90;71.40;;;;;;4156127;28;20041;-65
2021/03/03 07:25:51;;;;;;;48.07;17.57;;;10.00;71.00;;;;;;4156307;28;20103;-65
2021/03/03 07:27:52;;;;;;;43.97;16.93;;;10.10;70.80;;;;;;4156755;28;20091;-65
2021/03/03 07:30:15;;;;;;;39.77;16.07;;;10.30;70.20;;;;;;4156936;28;20559;-67
2021/03/03 07:32:18;;;;;;;49.17;16.87;;;10.70;69.50;;;;;;4156287;28;20502;-66
2021/03/03 07:34:19;;;;;;;43.30;17.67;;;10.60;68.40;;;;;;4156686;28;20033;-66
2021/03/03 07:36:20;;;;;;;49.43;15.87;;;10.00;69.00;;;;;;4156761;28;20038;-62
2021/03/03 07:38:22;;;;;;;40.83;16.73;;;9.50;70.30;;;;;;4156756;28;20029;-64
2021/03/03 07:40:32;;;;;;;37.77;14.70;;;9.50;70.80;;;;;;4156665;28;20555;-66
2021/03/03 07:42:35;;;;;;;53.90;18.88;;;9.80;70.50;;;;;;4162186;28;20033;-64
2021/03/03 07:44:41;;;;;;;48.47;15.70;;;10.10;70.60;;;;;;4161191;28;20041;-65
2021/03/03 07:46:47;;;;;;;34.10;14.73;;;10.20;69.90;;;;;;4156375;28;20033;-66
2021/03/03 07:48:50;;;;;;;37.50;15.17;;;10.10;70.30;;;;;;4156029;28;20547;-66
2021/03/03 07:50:51;;;;;;;35.87;15.40;;;10.10;70.20;;;;;;4155376;28;20029;-66
2021/03/03 07:52:55;;;;;;;43.20;18.57;;;10.00;69.60;;;;;;4154938;28;20022;-64
2021/03/03 07:54:58;;;;;;;37.50;14.70;;;9.80;70.20;;;;;;4154301;28;20042;-65
2021/03/03 07:57:03;;;;;;;36.17;12.50;;;9.70;70.50;;;;;;4155810;28;20038;-66
2021/03/03 07:59:09;;;;;;;36.30;15.27;;;9.60;70.90;;;;;;4156289;28;20718;-66
2021/03/03 08:01:11;;;;;;;31.17;13.20;;;9.60;70.60;;;;;;4155877;28;20025;-65
2021/03/03 08:03:13;;;;;;;31.87;13.13;;;9.80;70.60;;;;;;4156162;28;20091;-64
2021/03/03 08:05:38;;;;;;;35.23;13.57;;;9.70;70.90;;;;;;4155120;28;20025;-64
2021/03/03 08:07:39;;;;;;;35.63;12.83;;;9.60;71.10;;;;;;4170737;28;20445;-66
2021/03/03 08:10:03;;;;;;;35.37;14.00;;;9.40;71.90;;;;;;4155801;28;20119;-65
2021/03/03 08:12:06;;;;;;;32.93;12.40;;;9.40;71.80;;;;;;4158598;28;20064;-65
2021/03/03 08:14:30;;;;;;;32.13;12.87;;;9.30;71.90;;;;;;4154640;28;20037;-66
2021/03/03 08:17:07;;;;;;;31.67;13.90;;;9.20;71.80;;;;;;4155739;28;20041;-62
2021/03/03 08:19:09;;;;;;;25.03;12.30;;;9.20;71.70;;;;;;4151851;28;20417;-65
2021/03/03 08:21:10;;;;;;;26.63;11.43;;;9.00;72.00;;;;;;4154835;28;20075;-66
2021/03/03 08:23:11;;;;;;;28.37;12.43;;;9.00;72.60;;;;;;4154777;28;21833;-67
2021/03/03 08:25:12;;;;;;;30.40;12.17;;;9.10;72.50;;;;;;4155041;28;20472;-66
2021/03/03 08:27:32;;;;;;;30.30;12.83;;;9.10;71.80;;;;;;4155814;28;20060;-65
2021/03/03 08:29:33;;;;;;;25.53;11.67;;;9.00;71.10;;;;;;4155313;28;20037;-64
2021/03/03 08:31:38;;;;;;;24.93;11.17;;;8.80;72.40;;;;;;4151386;28;20424;-62
2021/03/03 08:33:41;;;;;;;24.57;10.70;;;8.80;72.40;;;;;;4155404;28;20049;-64
2021/03/03 08:35:42;;;;;;;21.40;10.33;;;8.90;72.00;;;;;;4155630;28;20029;-62
2021/03/03 08:37:43;;;;;;;22.47;11.00;;;8.90;72.20;;;;;;4155766;28;20033;-66
2021/03/03 08:39:47;;;;;;;27.63;11.03;;;9.00;72.00;;;;;;4154870;28;20658;-67
2021/03/03 08:41:48;;;;;;;20.37;9.17;;;9.20;71.80;;;;;;4155352;28;20029;-64
2021/03/03 08:44:00;;;;;;;22.50;10.93;;;9.30;71.00;;;;;;4153692;28;20080;-63
2021/03/03 08:46:21;;;;;;;20.97;9.77;;;9.40;70.70;;;;;;4155751;28;20037;-64
2021/03/03 08:48:22;;;;;;;17.90;8.77;;;9.70;69.70;;;;;;4153996;28;20045;-64
2021/03/03 08:50:33;;;;;;;20.67;9.90;;;9.80;68.90;;;;;;4155816;28;20460;-66
2021/03/03 08:52:34;;;;;;;24.40;8.90;;;9.40;69.20;;;;;;4156054;28;20060;-63
2021/03/03 08:54:46;;;;;;;19.83;9.57;;;9.20;70.30;;;;;;4155233;28;20083;-64
2021/03/03 08:56:52;;;;;;;24.17;11.60;;;9.10;70.80;;;;;;4154838;28;20051;-63
2021/03/03 08:58:53;;;;;;;22.03;10.73;;;9.10;71.60;;;;;;4151733;28;20415;-67
2021/03/03 09:00:54;;;;;;;21.80;10.10;;;9.10;71.60;;;;;;4149728;28;20099;-66
2021/03/03 09:02:56;;;;;;;27.27;10.93;;;9.10;71.80;;;;;;4162391;28;20095;-68
2021/03/03 09:04:57;;;;;;;22.70;10.37;;;9.10;72.10;;;;;;4162897;28;20765;-66
2021/03/03 09:07:12;;;;;;;21.27;9.70;;;9.10;72.50;;;;;;4154446;28;20033;-64
2021/03/03 09:09:13;;;;;;;19.80;10.13;;;9.30;72.50;;;;;;4154948;28;20091;-67
2021/03/03 09:11:16;;;;;;;21.63;10.80;;;9.40;71.90;;;;;;4160045;28;20041;-66
2021/03/03 09:13:28;;;;;;;27.57;9.63;;;9.40;72.00;;;;;;4156960;28;20599;-66
2021/03/03 09:15:29;;;;;;;20.50;9.03;;;9.30;72.40;;;;;;4172237;28;20824;-66
2021/03/03 09:17:32;;;;;;;19.33;9.67;;;9.40;72.30;;;;;;4158842;28;20076;-58
2021/03/03 09:19:34;;;;;;;21.20;9.37;;;9.30;72.60;;;;;;4155766;28;20095;-65
2021/03/03 09:21:36;;;;;;;18.07;9.40;;;9.50;72.70;;;;;;4155637;28;20501;-67
2021/03/03 09:23:37;;;;;;;23.73;10.30;;;9.60;72.20;;;;;;4155382;28;20416;-66
2021/03/03 09:25:39;;;;;;;27.17;10.43;;;9.80;71.80;;;;;;4155271;28;20955;-67
2021/03/03 09:27:47;;;;;;;21.60;9.80;;;9.90;71.30;;;;;;4154802;28;20030;-65
2021/03/03 09:29:49;;;;;;;29.37;10.53;;;10.10;70.70;;;;;;4153505;28;20053;-67
2021/03/03 09:31:51;;;;;;;22.87;9.70;;;10.00;71.00;;;;;;4155645;28;20041;-65
2021/03/03 09:33:52;;;;;;;19.73;9.00;;;9.90;71.20;;;;;;4155832;28;20037;-66
2021/03/03 09:35:53;;;;;;;24.90;10.63;;;9.80;71.90;;;;;;4155551;28;20091;-67
2021/03/03 09:37:54;;;;;;;22.20;10.83;;;9.80;72.30;;;;;;4154026;28;20045;-63
2021/03/03 09:39:57;;;;;;;23.70;10.80;;;10.10;72.30;;;;;;4154843;28;20104;-66
2021/03/03 09:42:02;;;;;;;24.53;10.93;;;10.20;72.00;;;;;;4154588;28;20037;-66
2021/03/03 09:44:06;;;;;;;24.53;11.27;;;10.40;72.00;;;;;;4154702;28;20041;-66
2021/03/03 09:46:08;;;;;;;26.07;12.30;;;10.50;72.00;;;;;;4155689;28;20789;-66
2021/03/03 09:48:10;;;;;;;27.93;12.40;;;10.60;72.10;;;;;;4157427;28;20826;-67
2021/03/03 09:50:14;;;;;;;28.57;11.50;;;10.60;72.60;;;;;;4157979;28;20080;-67
2021/03/03 09:52:15;;;;;;;26.80;11.80;;;10.50;72.90;;;;;;4156747;28;20083;-67
2021/03/03 09:54:34;;;;;;;25.43;10.90;;;10.60;73.30;;;;;;4156233;28;20037;-66
2021/03/03 09:56:35;;;;;;;25.00;11.90;;;10.60;73.40;;;;;;4157655;28;20067;-68
2021/03/03 09:58:37;;;;;;;27.10;11.03;;;10.60;73.60;;;;;;4158175;28;20156;-67
2021/03/03 10:00:40;;;;;;;19.73;10.20;;;10.60;73.90;;;;;;4161147;28;20037;-65
2021/03/03 10:02:50;;;;;;;26.60;12.07;;;10.70;74.10;;;;;;4157825;28;20033;-66
2021/03/03 10:04:53;;;;;;;25.85;11.60;;;10.70;74.30;;;;;;4157979;28;20115;-69
2021/03/03 10:06:57;;;;;;;25.13;11.73;;;10.60;74.70;;;;;;4157695;28;20119;-67
2021/03/03 10:08:59;;;;;;;28.73;12.47;;;10.60;74.80;;;;;;4157734;28;20091;-66
2021/03/03 10:11:01;;;;;;;27.33;11.87;;;10.60;75.00;;;;;;4156275;28;20103;-64
2021/03/03 10:13:02;;;;;;;20.97;11.77;;;10.50;75.20;;;;;;4157251;28;20044;-66
2021/03/03 10:15:09;;;;;;;27.03;12.37;;;10.40;75.50;;;;;;4157035;28;20030;-67
2021/03/03 10:17:11;;;;;;;25.67;11.67;;;10.50;75.60;;;;;;4157403;28;20029;-65
2021/03/03 10:19:12;;;;;;;32.77;12.93;;;10.60;75.50;;;;;;4142218;28;20100;-67
2021/03/03 10:21:17;;;;;;;24.50;12.03;;;10.60;75.90;;;;;;4148712;28;20429;-67
2021/03/03 10:23:21;;;;;;;29.40;12.13;;;10.70;75.70;;;;;;4160629;28;20029;-65
2021/03/03 10:25:31;;;;;;;24.93;10.87;;;10.70;75.90;;;;;;4157273;28;20075;-64
2021/03/03 10:27:41;;;;;;;26.02;11.77;;;10.80;76.10;;;;;;4160744;28;20522;-64
2021/03/03 10:29:42;;;;;;;25.43;12.07;;;10.80;76.30;;;;;;4160726;28;20110;-67
2021/03/03 10:31:43;;;;;;;22.83;12.33;;;10.90;76.40;;;;;;4158629;28;20026;-66
2021/03/03 10:33:47;;;;;;;23.50;11.03;;;11.00;76.00;;;;;;4163307;28;20099;-65